Terminal Aerodrome Forecast
Issued by NWS Jackson, MS

Home | Current Version | Previous Version | Text Only | Print | Product List | Glossary On
Versions: 1 2 3 4 5 6 7 8 9 10 11 12 13 14
000
FTUS44 KJAN 171737
TAFJAN
TAF
KJAN 171737Z 1718/1818 12003KT P6SM SCT005 BKN110
     FM171900 18004KT P6SM OVC015
     FM180100 09003KT P6SM OVC007
     FM180600 12003KT 4SM BR OVC003
     FM181200 09003KT 2SM -RA BR OVC003=

USA.gov is the U.S. government's official web portal to all federal, state and local government web resources and services.